createdAt,value
2022-12-24T00:01:02.185Z,13.59
2022-12-24T00:03:29.303Z,13.32
2022-12-24T00:05:56.141Z,13.78
2022-12-24T00:08:22.876Z,13.13
2022-12-24T00:10:52.411Z,13.10
2022-12-24T00:13:19.525Z,12.53
2022-12-24T00:15:46.487Z,12.81
2022-12-24T00:18:13.225Z,13.08
2022-12-24T00:20:39.905Z,13.60
2022-12-24T00:23:06.636Z,13.17
2022-12-24T00:25:33.311Z,12.69
2022-12-24T00:28:00.025Z,12.72
2022-12-24T00:30:26.650Z,12.15
2022-12-24T00:32:53.285Z,11.75
2022-12-24T00:35:19.937Z,12.13
2022-12-24T00:37:49.939Z,12.68
2022-12-24T00:40:17.011Z,12.37
2022-12-24T00:42:43.684Z,12.64
2022-12-24T00:45:10.937Z,12.14
2022-12-24T00:47:37.652Z,11.76
2022-12-24T00:50:04.846Z,11.67
2022-12-24T00:52:31.472Z,11.28
2022-12-24T00:54:58.137Z,11.21
2022-12-24T00:57:24.780Z,10.87
2022-12-24T00:59:51.463Z,11.09
2022-12-24T01:02:18.241Z,10.81
2022-12-24T01:05:03.501Z,10.84
2022-12-24T01:07:30.143Z,10.81
2022-12-24T01:09:56.823Z,11.19
2022-12-24T01:12:23.729Z,11.19
2022-12-24T01:14:50.432Z,11.33
2022-12-24T01:17:17.227Z,11.05
2022-12-24T01:19:43.898Z,11.45
2022-12-24T01:22:10.561Z,11.15
2022-12-24T01:24:37.199Z,11.10
2022-12-24T01:27:03.877Z,11.12
2022-12-24T01:29:30.498Z,11.08
2022-12-24T01:31:57.156Z,11.25
2022-12-24T01:34:23.821Z,10.73
2022-12-24T01:36:50.464Z,11.08
2022-12-24T01:39:17.083Z,11.12
2022-12-24T01:42:02.139Z,10.96
2022-12-24T01:44:37.227Z,11.34
2022-12-24T01:47:07.218Z,11.24
2022-12-24T01:49:34.052Z,11.49
2022-12-24T01:52:11.610Z,11.43
2022-12-24T01:54:48.634Z,11.29
2022-12-24T01:57:16.785Z,11.14
2022-12-24T01:59:44.846Z,11.37
2022-12-24T02:02:11.628Z,11.46
2022-12-24T02:04:58.129Z,11.88
2022-12-24T02:07:24.940Z,12.63
2022-12-24T02:09:52.464Z,12.60
2022-12-24T02:12:19.143Z,12.86
2022-12-24T02:14:45.802Z,12.68
2022-12-24T02:17:32.298Z,13.50
2022-12-24T02:20:31.938Z,13.51
2022-12-24T02:23:01.350Z,13.89
2022-12-24T02:26:00.568Z,14.03
2022-12-24T02:28:45.692Z,14.23
2022-12-24T02:31:14.284Z,13.60
2022-12-24T02:33:51.113Z,13.50
2022-12-24T02:36:25.806Z,13.02
2022-12-24T02:39:02.481Z,13.11
2022-12-24T02:41:54.029Z,12.94
2022-12-24T02:44:21.143Z,12.39
2022-12-24T02:46:48.003Z,11.76
2022-12-24T02:49:14.751Z,12.10
2022-12-24T02:51:41.435Z,12.68
2022-12-24T02:54:08.321Z,12.56
2022-12-24T02:56:54.596Z,12.34
2022-12-24T02:59:28.626Z,12.76
2022-12-24T03:02:05.310Z,12.55
2022-12-24T03:04:39.910Z,12.69
2022-12-24T03:07:15.589Z,12.52
2022-12-24T03:09:51.431Z,12.69
2022-12-24T03:12:22.603Z,12.58
2022-12-24T03:14:49.243Z,12.19
2022-12-24T03:17:15.962Z,11.98
2022-12-24T03:19:42.599Z,11.85
2022-12-24T03:22:10.376Z,12.39
2022-12-24T03:24:37.078Z,12.31
2022-12-24T03:27:04.982Z,13.26
2022-12-24T03:29:31.826Z,13.30
2022-12-24T03:32:02.496Z,13.15
2022-12-24T03:34:29.171Z,13.26
2022-12-24T03:36:56.039Z,13.01
2022-12-24T03:39:22.865Z,12.54
2022-12-24T03:41:49.549Z,11.96
2022-12-24T03:44:16.206Z,12.41
2022-12-24T03:46:42.864Z,12.87
2022-12-24T03:49:09.605Z,13.32
2022-12-24T03:51:36.323Z,13.21
2022-12-24T03:54:02.993Z,13.15
2022-12-24T03:56:29.634Z,12.76
2022-12-24T03:58:56.267Z,12.82
2022-12-24T04:01:22.994Z,12.51
2022-12-24T04:03:49.809Z,13.14
2022-12-24T04:06:17.898Z,13.59
2022-12-24T04:08:44.552Z,13.25
2022-12-24T04:11:12.135Z,12.91
2022-12-24T04:13:38.910Z,12.08
2022-12-24T04:16:06.918Z,12.15
2022-12-24T04:18:33.767Z,11.86
2022-12-24T04:21:00.534Z,11.82
2022-12-24T04:23:27.173Z,11.93
2022-12-24T04:25:53.840Z,11.74
2022-12-24T04:28:20.463Z,11.77
2022-12-24T04:30:47.117Z,12.01
2022-12-24T04:33:13.775Z,12.41
2022-12-24T04:35:41.480Z,12.57
2022-12-24T04:38:08.776Z,12.97
2022-12-24T04:40:35.471Z,13.36
2022-12-24T04:43:02.162Z,13.84
2022-12-24T04:45:28.835Z,14.10
2022-12-24T04:47:55.493Z,14.63
2022-12-24T04:50:22.144Z,14.49
2022-12-24T04:52:48.884Z,14.68
2022-12-24T04:55:15.584Z,14.53
2022-12-24T04:57:42.240Z,14.49
2022-12-24T05:00:09.189Z,13.90
2022-12-24T05:02:35.959Z,14.03
2022-12-24T05:05:03.339Z,13.71
2022-12-24T05:07:30.004Z,13.43
2022-12-24T05:09:56.644Z,13.89
2022-12-24T05:12:23.583Z,13.03
2022-12-24T05:14:50.241Z,13.93
2022-12-24T05:17:16.938Z,14.12
2022-12-24T05:19:43.643Z,14.43
2022-12-24T05:22:29.039Z,14.44
2022-12-24T05:25:13.947Z,14.37
2022-12-24T05:27:43.449Z,14.35
2022-12-24T05:30:14.140Z,14.51
2022-12-24T05:32:40.764Z,14.57
2022-12-24T05:35:07.586Z,14.11
2022-12-24T05:37:34.287Z,14.23
2022-12-24T05:40:01.033Z,13.96
2022-12-24T05:42:27.687Z,13.37
2022-12-24T05:44:54.336Z,13.34
2022-12-24T05:47:20.958Z,13.12
2022-12-24T05:49:47.591Z,13.37
2022-12-24T05:52:14.302Z,12.97
2022-12-24T05:54:40.956Z,13.56
2022-12-24T05:57:08.321Z,13.91
2022-12-24T05:59:35.180Z,13.64
2022-12-24T06:02:01.916Z,14.52
2022-12-24T06:04:29.416Z,14.87
2022-12-24T06:06:56.283Z,13.45
2022-12-24T06:09:22.926Z,15.26
2022-12-24T06:11:49.540Z,14.55
2022-12-24T06:14:16.158Z,15.76
2022-12-24T06:16:42.828Z,15.08
2022-12-24T06:19:09.454Z,13.68
2022-12-24T06:21:36.415Z,12.97
2022-12-24T06:24:03.238Z,12.78
2022-12-24T06:26:29.906Z,12.43
2022-12-24T06:28:56.563Z,12.53
2022-12-24T06:31:23.708Z,12.29
2022-12-24T06:33:50.628Z,11.86
2022-12-24T06:36:18.421Z,11.85
2022-12-24T06:38:45.816Z,11.84
2022-12-24T06:41:12.470Z,11.64
2022-12-24T06:43:39.132Z,11.55
2022-12-24T06:46:05.850Z,11.70
2022-12-24T06:48:32.603Z,12.08
2022-12-24T06:50:59.286Z,12.21
2022-12-24T06:53:26.045Z,13.32
2022-12-24T06:55:52.703Z,12.98
2022-12-24T06:58:19.333Z,12.40
2022-12-24T07:00:47.576Z,12.75
2022-12-24T07:03:14.405Z,13.06
2022-12-24T07:05:41.207Z,13.56
2022-12-24T07:08:08.590Z,13.39
2022-12-24T07:10:35.257Z,13.41
2022-12-24T07:13:01.916Z,14.07
2022-12-24T07:15:28.571Z,14.06
2022-12-24T07:17:55.241Z,14.18
2022-12-24T07:20:21.943Z,14.00
2022-12-24T07:22:48.641Z,13.99
2022-12-24T07:25:15.504Z,14.93
2022-12-24T07:27:42.144Z,14.30
2022-12-24T07:30:09.368Z,15.32
2022-12-24T07:32:36.032Z,14.84
2022-12-24T07:35:03.191Z,14.45
2022-12-24T07:37:29.929Z,14.98
2022-12-24T07:39:56.636Z,14.80
2022-12-24T07:42:23.308Z,15.41
2022-12-24T07:44:49.969Z,14.27
2022-12-24T07:47:16.616Z,14.82
2022-12-24T07:49:43.302Z,14.52
2022-12-24T07:52:09.981Z,14.45
2022-12-24T07:54:36.725Z,15.59
2022-12-24T07:57:03.419Z,15.73
2022-12-24T07:59:30.091Z,15.04
2022-12-24T08:01:56.915Z,14.58
2022-12-24T08:04:23.690Z,14.00
2022-12-24T08:06:50.341Z,14.64
2022-12-24T08:09:17.096Z,14.57
2022-12-24T08:11:49.879Z,14.72
2022-12-24T08:14:18.895Z,13.25
2022-12-24T08:16:45.577Z,13.23
2022-12-24T08:19:12.290Z,13.64
2022-12-24T08:21:38.948Z,12.79
2022-12-24T08:24:05.696Z,13.03
2022-12-24T08:26:32.452Z,12.45
2022-12-24T08:28:59.111Z,12.51
2022-12-24T08:31:25.805Z,13.36
2022-12-24T08:33:52.498Z,12.90
2022-12-24T08:36:19.139Z,12.87
2022-12-24T08:38:45.866Z,13.55
2022-12-24T08:41:12.544Z,13.62
2022-12-24T08:43:39.226Z,12.93
2022-12-24T08:46:06.143Z,12.92
2022-12-24T08:48:33.359Z,12.61
2022-12-24T08:51:00.005Z,12.09
2022-12-24T08:53:26.706Z,12.83
2022-12-24T08:55:56.124Z,12.97
2022-12-24T08:58:23.117Z,13.48
2022-12-24T09:00:49.838Z,13.36
2022-12-24T09:03:19.566Z,14.02
2022-12-24T09:05:50.239Z,13.87
2022-12-24T09:08:16.898Z,14.70
2022-12-24T09:10:43.600Z,15.31
2022-12-24T09:13:10.259Z,14.31
2022-12-24T09:15:36.945Z,14.49
2022-12-24T09:18:03.828Z,14.43
2022-12-24T09:20:30.463Z,14.62
2022-12-24T09:22:57.107Z,15.45
2022-12-24T09:25:23.782Z,15.44
2022-12-24T09:27:50.421Z,15.13
2022-12-24T09:30:17.116Z,15.13
2022-12-24T09:32:43.802Z,15.39
2022-12-24T09:35:10.452Z,15.24
2022-12-24T09:37:37.574Z,15.08
2022-12-24T09:40:04.357Z,14.50
2022-12-24T09:42:47.272Z,14.48
2022-12-24T09:45:29.818Z,14.24
2022-12-24T09:48:06.445Z,14.54
2022-12-24T09:50:33.111Z,14.73
2022-12-24T09:53:00.959Z,14.51
2022-12-24T09:55:29.138Z,14.33
2022-12-24T09:57:56.061Z,14.01
2022-12-24T10:00:24.199Z,14.48
2022-12-24T10:02:50.987Z,15.03
2022-12-24T10:05:18.454Z,13.94
2022-12-24T10:08:03.746Z,15.24
2022-12-24T10:10:30.396Z,14.83
2022-12-24T10:13:00.819Z,14.97
2022-12-24T10:15:27.478Z,15.67
2022-12-24T10:18:07.627Z,15.29
2022-12-24T10:20:40.198Z,14.83
2022-12-24T10:23:09.751Z,14.74
2022-12-24T10:25:45.541Z,15.13
2022-12-24T10:28:19.586Z,14.40
2022-12-24T10:30:48.893Z,15.64
2022-12-24T10:33:19.699Z,15.16
2022-12-24T10:35:48.008Z,15.51
2022-12-24T10:38:14.651Z,15.67
2022-12-24T10:40:42.782Z,16.16
2022-12-24T10:43:22.783Z,15.85
2022-12-24T10:46:00.031Z,15.76
2022-12-24T10:48:31.222Z,14.77
2022-12-24T10:51:06.103Z,14.39
2022-12-24T10:53:38.745Z,15.04
2022-12-24T10:56:06.708Z,14.92
2022-12-24T10:58:33.333Z,15.26
2022-12-24T11:01:00.146Z,15.31
2022-12-24T11:03:33.831Z,15.58
2022-12-24T11:06:01.476Z,16.22
2022-12-24T11:08:28.105Z,16.28
2022-12-24T11:11:13.723Z,16.04
2022-12-24T11:14:00.593Z,16.59
2022-12-24T11:16:30.186Z,16.66
2022-12-24T11:18:58.047Z,16.45
2022-12-24T11:21:31.787Z,16.02
2022-12-24T11:23:59.635Z,15.90
2022-12-24T11:26:27.939Z,16.45
2022-12-24T11:29:14.853Z,16.39
2022-12-24T11:31:42.428Z,16.36
2022-12-24T11:34:27.565Z,15.42
2022-12-24T11:36:54.838Z,14.95
2022-12-24T11:39:22.654Z,15.46
2022-12-24T11:41:51.219Z,15.18
2022-12-24T11:44:23.948Z,15.27
2022-12-24T11:46:56.688Z,15.54
2022-12-24T11:49:25.005Z,15.16
2022-12-24T11:52:00.222Z,14.79
2022-12-24T11:54:27.494Z,14.56
2022-12-24T11:56:54.872Z,14.89
2022-12-24T11:59:34.387Z,15.55
2022-12-24T12:02:13.058Z,15.14
2022-12-24T12:04:39.795Z,15.38
2022-12-24T12:07:22.422Z,15.31
2022-12-24T12:09:52.121Z,15.17
2022-12-24T12:12:22.831Z,15.49
2022-12-24T12:14:51.349Z,15.51
2022-12-24T12:17:24.510Z,15.87
2022-12-24T12:19:57.648Z,15.46
2022-12-24T12:22:33.289Z,15.81
2022-12-24T12:24:59.933Z,15.96
2022-12-24T12:27:34.406Z,15.95
2022-12-24T12:30:02.860Z,16.36
2022-12-24T12:32:34.638Z,15.91
2022-12-24T12:35:03.529Z,15.77
2022-12-24T12:37:37.552Z,16.40
2022-12-24T12:40:04.379Z,16.23
2022-12-24T12:42:32.089Z,16.76
2022-12-24T12:45:01.763Z,16.52
2022-12-24T12:47:34.662Z,16.30
2022-12-24T12:50:23.805Z,16.67
2022-12-24T12:53:09.205Z,15.54
2022-12-24T12:55:35.861Z,15.63
2022-12-24T12:58:06.349Z,15.59
2022-12-24T13:00:33.909Z,15.93
2022-12-24T13:03:19.220Z,15.70
2022-12-24T13:06:00.973Z,14.80
2022-12-24T13:08:30.609Z,14.59
2022-12-24T13:11:15.697Z,13.94
2022-12-24T13:13:48.956Z,14.92
2022-12-24T13:16:30.508Z,14.79
2022-12-24T13:19:03.437Z,14.84
2022-12-24T13:21:30.680Z,15.10
2022-12-24T13:24:17.923Z,15.17
2022-12-24T13:26:59.735Z,14.93
2022-12-24T13:29:35.568Z,15.79
2022-12-24T13:32:20.551Z,16.56
2022-12-24T13:34:56.901Z,16.52
2022-12-24T13:37:29.710Z,16.42
2022-12-24T13:40:08.738Z,16.60
2022-12-24T13:42:54.042Z,17.06
2022-12-24T13:45:29.976Z,16.12
2022-12-24T13:47:56.799Z,15.31
2022-12-24T13:50:28.879Z,14.75
2022-12-24T13:52:55.509Z,14.59
2022-12-24T13:55:22.254Z,14.09
2022-12-24T13:57:55.198Z,14.01
2022-12-24T14:00:21.839Z,14.93
2022-12-24T14:02:57.839Z,14.44
2022-12-24T14:05:29.435Z,15.05
2022-12-24T14:07:56.093Z,15.83
2022-12-24T14:10:24.072Z,15.76
2022-12-24T14:12:51.578Z,15.61
2022-12-24T14:15:36.718Z,16.21
2022-12-24T14:18:03.402Z,15.38
2022-12-24T14:20:31.583Z,16.15
2022-12-24T14:22:58.246Z,16.00
2022-12-24T14:25:24.948Z,15.52
2022-12-24T14:28:04.781Z,15.76
2022-12-24T14:30:31.697Z,15.03
2022-12-24T14:32:58.361Z,14.61
2022-12-24T14:35:26.115Z,14.75
2022-12-24T14:37:57.240Z,15.23
2022-12-24T14:40:27.617Z,15.11
2022-12-24T14:42:59.479Z,14.18
2022-12-24T14:45:26.270Z,14.02
2022-12-24T14:48:00.063Z,13.61
2022-12-24T14:50:32.805Z,13.24
2022-12-24T14:53:19.208Z,13.36
2022-12-24T14:55:49.377Z,13.18
2022-12-24T14:58:26.494Z,12.83
2022-12-24T15:00:54.940Z,13.43
2022-12-24T15:03:22.696Z,13.42
2022-12-24T15:05:56.625Z,12.89
2022-12-24T15:08:28.485Z,13.05
2022-12-24T15:10:55.720Z,12.82
2022-12-24T15:13:22.370Z,12.36
2022-12-24T15:15:52.646Z,11.97
2022-12-24T15:18:21.408Z,11.37
2022-12-24T15:21:03.971Z,11.79
2022-12-24T15:23:37.645Z,11.53
2022-12-24T15:26:08.655Z,11.30
2022-12-24T15:28:36.844Z,11.95
2022-12-24T15:31:09.562Z,12.72
2022-12-24T15:33:37.532Z,12.89
2022-12-24T15:36:04.532Z,12.68
2022-12-24T15:38:32.199Z,12.88
2022-12-24T15:40:59.013Z,13.26
2022-12-24T15:43:25.714Z,13.67
2022-12-24T15:45:52.426Z,14.35
2022-12-24T15:48:21.357Z,15.41
2022-12-24T15:50:52.307Z,15.45
2022-12-24T15:53:26.051Z,14.90
2022-12-24T15:56:02.858Z,15.07
2022-12-24T15:58:33.608Z,14.02
2022-12-24T16:01:22.275Z,14.75
2022-12-24T16:03:51.927Z,14.82
2022-12-24T16:06:18.736Z,13.69
2022-12-24T16:08:45.673Z,14.12
2022-12-24T16:11:13.830Z,13.88
2022-12-24T16:13:44.622Z,14.19
2022-12-24T16:16:14.826Z,13.87
2022-12-24T16:18:41.475Z,13.28
2022-12-24T16:21:08.313Z,13.25
2022-12-24T16:23:34.935Z,13.54
2022-12-24T16:26:01.611Z,13.11
2022-12-24T16:28:28.418Z,13.78
2022-12-24T16:31:03.312Z,13.42
2022-12-24T16:33:30.100Z,13.65
2022-12-24T16:35:56.832Z,13.22
2022-12-24T16:38:23.668Z,12.77
2022-12-24T16:41:05.363Z,13.53
2022-12-24T16:43:50.090Z,13.36
2022-12-24T16:46:16.864Z,14.13
2022-12-24T16:48:45.224Z,13.70
2022-12-24T16:51:20.363Z,14.05
2022-12-24T16:53:46.992Z,13.61
2022-12-24T16:56:13.651Z,13.31
2022-12-24T16:58:40.268Z,13.35
2022-12-24T17:01:25.372Z,13.64
2022-12-24T17:03:52.178Z,13.44
2022-12-24T17:06:18.827Z,13.67
2022-12-24T17:08:45.537Z,14.19
2022-12-24T17:11:12.190Z,14.01
2022-12-24T17:13:38.826Z,14.38
2022-12-24T17:16:05.815Z,14.36
2022-12-24T17:18:32.477Z,13.77
2022-12-24T17:21:00.067Z,14.25
2022-12-24T17:23:27.028Z,14.14
2022-12-24T17:25:53.727Z,14.31
2022-12-24T17:28:21.732Z,14.47
2022-12-24T17:30:59.465Z,14.72
2022-12-24T17:33:26.105Z,14.37
2022-12-24T17:35:52.749Z,14.89
2022-12-24T17:38:19.402Z,15.14
2022-12-24T17:40:46.053Z,15.16
2022-12-24T17:43:12.776Z,14.99
2022-12-24T17:45:42.566Z,15.33
2022-12-24T17:48:09.286Z,15.43
2022-12-24T17:50:40.160Z,14.70
2022-12-24T17:53:06.872Z,14.75
2022-12-24T17:55:33.625Z,15.78
2022-12-24T17:58:00.400Z,14.05
2022-12-24T18:00:32.819Z,14.02
2022-12-24T18:03:00.124Z,13.89
2022-12-24T18:05:26.868Z,13.35
2022-12-24T18:07:53.580Z,12.93
2022-12-24T18:10:21.346Z,12.91
2022-12-24T18:12:48.022Z,12.31
2022-12-24T18:15:18.051Z,11.58
2022-12-24T18:17:44.696Z,12.23
2022-12-24T18:20:12.579Z,12.18
2022-12-24T18:22:39.257Z,12.91
2022-12-24T18:25:06.772Z,12.56
2022-12-24T18:27:34.853Z,13.02
2022-12-24T18:30:03.890Z,12.72
2022-12-24T18:32:30.519Z,12.19
2022-12-24T18:34:57.230Z,11.64
2022-12-24T18:37:23.905Z,12.01
2022-12-24T18:39:52.597Z,12.07
2022-12-24T18:42:19.299Z,12.49
2022-12-24T18:44:46.041Z,12.88
2022-12-24T18:47:12.847Z,14.01
2022-12-24T18:49:39.516Z,13.93
2022-12-24T18:52:09.502Z,13.65
2022-12-24T18:54:36.591Z,13.90
2022-12-24T18:57:03.643Z,15.01
2022-12-24T18:59:32.336Z,15.56
2022-12-24T19:01:59.294Z,15.35
2022-12-24T19:04:26.051Z,15.41
2022-12-24T19:06:53.463Z,15.29
2022-12-24T19:09:20.718Z,15.46
2022-12-24T19:11:47.370Z,15.26
2022-12-24T19:14:14.126Z,14.54
2022-12-24T19:16:41.404Z,14.42
2022-12-24T19:19:09.039Z,12.87
2022-12-24T19:21:35.701Z,12.90
2022-12-24T19:24:02.356Z,12.94
2022-12-24T19:26:29.051Z,13.22
2022-12-24T19:28:55.696Z,12.44
2022-12-24T19:31:24.394Z,12.49
2022-12-24T19:33:53.178Z,12.94
2022-12-24T19:36:21.157Z,13.09
2022-12-24T19:38:47.975Z,13.70
2022-12-24T19:41:24.602Z,13.25
2022-12-24T19:43:52.373Z,12.29
2022-12-24T19:46:20.187Z,12.38
2022-12-24T19:48:56.621Z,12.99
2022-12-24T19:51:25.686Z,13.42
2022-12-24T19:53:55.484Z,13.72
2022-12-24T19:56:22.598Z,14.00
2022-12-24T19:58:49.351Z,14.16
2022-12-24T20:01:18.379Z,14.29
2022-12-24T20:03:45.496Z,15.05
2022-12-24T20:06:12.754Z,15.44
2022-12-24T20:08:39.627Z,14.15
2022-12-24T20:11:09.179Z,13.53
2022-12-24T20:13:36.323Z,13.63
2022-12-24T20:16:04.272Z,12.73
2022-12-24T20:18:30.945Z,13.24
2022-12-24T20:21:00.987Z,12.02
2022-12-24T20:23:27.694Z,11.81
2022-12-24T20:25:58.775Z,11.64
2022-12-24T20:28:28.127Z,11.84
2022-12-24T20:30:56.925Z,11.96
2022-12-24T20:33:24.166Z,11.94
2022-12-24T20:35:50.827Z,11.74
2022-12-24T20:38:17.476Z,11.44
2022-12-24T20:40:45.573Z,11.74
2022-12-24T20:43:12.619Z,11.46
2022-12-24T20:45:39.505Z,12.29
2022-12-24T20:48:06.425Z,12.33
2022-12-24T20:50:41.196Z,11.73
2022-12-24T20:53:07.815Z,11.47
2022-12-24T20:55:34.912Z,11.67
2022-12-24T20:58:01.667Z,11.33
2022-12-24T21:00:29.422Z,10.98
2022-12-24T21:02:56.188Z,11.49
2022-12-24T21:05:23.154Z,11.64
2022-12-24T21:07:49.779Z,11.52
2022-12-24T21:10:20.554Z,11.52
2022-12-24T21:12:50.398Z,11.91
2022-12-24T21:15:17.702Z,11.43
2022-12-24T21:17:44.386Z,11.62
2022-12-24T21:20:11.365Z,11.87
2022-12-24T21:22:38.324Z,11.95
2022-12-24T21:25:05.582Z,11.97
2022-12-24T21:27:32.373Z,11.91
2022-12-24T21:29:59.037Z,11.94
2022-12-24T21:32:25.847Z,11.91
2022-12-24T21:34:52.541Z,11.79
2022-12-24T21:37:19.536Z,11.78
2022-12-24T21:39:48.186Z,11.48
2022-12-24T21:42:14.906Z,11.77
2022-12-24T21:44:41.654Z,11.95
2022-12-24T21:47:08.387Z,11.69
2022-12-24T21:49:53.387Z,12.11
2022-12-24T21:52:20.009Z,12.47
2022-12-24T21:54:46.649Z,11.59
2022-12-24T21:57:31.901Z,12.31
2022-12-24T22:00:20.529Z,12.26
2022-12-24T22:02:47.610Z,12.08
2022-12-24T22:05:14.549Z,12.00
2022-12-24T22:07:59.863Z,12.19
2022-12-24T22:10:46.066Z,12.08
2022-12-24T22:13:12.801Z,12.03
2022-12-24T22:15:43.599Z,12.36
2022-12-24T22:18:10.350Z,11.98
2022-12-24T22:20:37.213Z,11.69
2022-12-24T22:23:03.919Z,11.95
2022-12-24T22:25:30.851Z,12.81
2022-12-24T22:27:57.527Z,13.26
2022-12-24T22:30:26.224Z,13.09
2022-12-24T22:32:52.905Z,13.04
2022-12-24T22:35:19.572Z,14.10
2022-12-24T22:37:46.303Z,13.70
2022-12-24T22:40:13.213Z,12.37
2022-12-24T22:42:41.084Z,11.72
2022-12-24T22:45:08.331Z,12.49
2022-12-24T22:47:35.008Z,12.61
2022-12-24T22:50:02.909Z,13.66
2022-12-24T22:52:31.473Z,13.10
2022-12-24T22:54:58.118Z,13.52
2022-12-24T22:57:24.773Z,14.22
2022-12-24T22:59:52.452Z,14.39
2022-12-24T23:02:25.747Z,13.83
2022-12-24T23:04:54.612Z,13.71
2022-12-24T23:07:21.335Z,13.68
2022-12-24T23:09:48.069Z,13.84
2022-12-24T23:12:34.632Z,14.81
2022-12-24T23:15:01.323Z,14.71
2022-12-24T23:17:27.988Z,14.42
2022-12-24T23:19:57.640Z,14.39
2022-12-24T23:22:24.267Z,15.14
2022-12-24T23:24:50.911Z,14.55
2022-12-24T23:27:17.581Z,13.92
2022-12-24T23:29:44.226Z,13.28
2022-12-24T23:32:10.937Z,13.36
2022-12-24T23:34:37.586Z,14.29
2022-12-24T23:37:04.256Z,15.04
2022-12-24T23:39:34.822Z,14.62
2022-12-24T23:42:01.467Z,14.85
2022-12-24T23:44:32.274Z,14.49
2022-12-24T23:46:59.695Z,14.48
2022-12-24T23:49:26.956Z,14.16
2022-12-24T23:51:53.607Z,14.24
2022-12-24T23:54:20.261Z,13.99
2022-12-24T23:56:46.919Z,14.30
2022-12-24T23:59:13.557Z,13.94
